Time;durP1;ratioP1;P1;durP2;ratioP2;P2;SDS_P1;SDS_P2;PMS_P1;PMS_P2;Temp;Humidity;BMP_temperature;BMP_pressure;BME280_temperature;BME280_humidity;BME280_pressure;Samples;Min_cycle;Max_cycle;Signal;HPM_P1;HPM_P2
2024/01/15 00:01:34;;;;;;;21.42;10.82;;;;;;;0.74;52.68;99950.59;5020510;28;20087;-85
2024/01/15 00:04:02;;;;;;;25.92;11.95;;;;;;;0.74;52.46;99952.44;5014499;28;20076;-85
2024/01/15 00:06:33;;;;;;;25.67;11.45;;;;;;;0.76;52.44;99955.03;5019087;28;20037;-85
2024/01/15 00:09:01;;;;;;;20.67;10.52;;;;;;;0.75;52.62;99954.16;5015472;28;20065;-85
2024/01/15 00:11:40;;;;;;;23.30;11.93;;;;;;;0.74;52.63;99949.72;5018993;28;20647;-84
2024/01/15 00:14:14;;;;;;;23.02;11.15;;;;;;;0.76;52.69;99944.25;5003445;28;20121;-83
2024/01/15 00:16:45;;;;;;;20.80;10.90;;;;;;;0.75;52.61;99940.69;5011741;28;20040;-83
2024/01/15 00:19:18;;;;;;;25.08;12.60;;;;;;;0.73;52.55;99940.78;5017479;28;20046;-83
2024/01/15 00:22:10;;;;;;;24.08;11.63;;;;;;;0.69;52.70;99939.22;5015290;28;20502;-83
2024/01/15 00:24:43;;;;;;;21.27;11.48;;;;;;;0.71;53.11;99933.75;5020891;28;20038;-84
2024/01/15 00:34:31;;;;;;;22.20;10.90;;;;;;;0.59;52.97;99927.31;5023458;28;20033;-83
2024/01/15 00:37:02;;;;;;;22.90;11.15;;;;;;;0.61;52.82;99924.50;5023417;28;20041;-84
2024/01/15 00:39:31;;;;;;;23.15;11.20;;;;;;;0.61;53.00;99924.50;5015417;28;20397;-84
2024/01/15 00:42:23;;;;;;;22.98;11.38;;;;;;;0.58;52.96;99912.13;5038652;28;20056;-84
2024/01/15 00:45:02;;;;;;;20.70;10.63;;;;;;;0.60;52.97;99912.03;5019673;28;20686;-86
2024/01/15 00:47:31;;;;;;;22.58;11.10;;;;;;;0.59;53.15;99895.00;5013666;28;20561;-84
2024/01/15 00:50:04;;;;;;;22.75;10.82;;;;;;;0.61;53.02;99897.56;5020352;28;20116;-83
2024/01/15 00:52:46;;;;;;;24.08;10.55;;;;;;;0.60;53.13;99903.94;5023160;28;20041;-83
2024/01/15 00:55:14;;;;;;;20.00;9.82;;;;;;;0.59;53.07;99903.09;5025394;28;20405;-85
2024/01/15 00:57:42;;;;;;;19.95;10.18;;;;;;;0.60;53.31;99901.25;5045817;28;20051;-85
2024/01/15 01:00:26;;;;;;;20.33;10.55;;;;;;;0.62;53.69;99902.00;5023950;28;20045;-86
2024/01/15 01:06:04;;;;;;;20.35;10.13;;;;;;;0.59;53.43;99903.09;5022908;28;20492;-84
2024/01/15 01:08:40;;;;;;;20.98;10.60;;;;;;;0.60;53.30;99904.78;5022630;28;20037;-85
2024/01/15 01:11:09;;;;;;;19.88;10.55;;;;;;;0.60;53.18;99896.72;5022276;28;20394;-84
2024/01/15 01:13:37;;;;;;;22.23;11.65;;;;;;;0.60;53.05;99896.72;5020187;28;20111;-84
2024/01/15 01:16:31;;;;;;;20.83;11.55;;;;;;;0.60;53.71;99895.88;5027121;28;20045;-85
2024/01/15 01:18:59;;;;;;;21.67;10.32;;;;;;;0.60;52.98;99898.56;5026006;28;20045;-84
2024/01/15 01:21:29;;;;;;;21.30;11.15;;;;;;;0.61;53.47;99892.19;5024790;28;20041;-85
2024/01/15 01:23:58;;;;;;;21.88;10.63;;;;;;;0.61;53.30;99889.50;5025846;28;20116;-84
2024/01/15 01:26:28;;;;;;;20.23;10.63;;;;;;;0.62;53.50;99883.16;5018734;28;20046;-84
2024/01/15 01:28:56;;;;;;;19.80;10.25;;;;;;;0.63;53.28;99880.38;5017516;28;20041;-85
2024/01/15 01:31:25;;;;;;;21.65;10.77;;;;;;;0.63;53.35;99887.59;5025628;28;20056;-84
2024/01/15 01:33:53;;;;;;;20.70;10.32;;;;;;;0.63;53.17;99883.06;5017060;28;20470;-84
2024/01/15 01:36:30;;;;;;;20.35;9.80;;;;;;;0.64;53.45;99889.31;5019286;28;20061;-84
2024/01/15 01:39:00;;;;;;;18.30;9.48;;;;;;;0.65;53.43;99885.66;5017285;28;20045;-85
2024/01/15 01:41:28;;;;;;;21.50;10.90;;;;;;;0.63;53.54;99887.59;5012723;28;20107;-85
2024/01/15 01:44:05;;;;;;;20.02;10.77;;;;;;;0.63;53.53;99885.75;5009642;23;20136;-75
2024/01/15 01:46:33;;;;;;;22.38;11.43;;;;;;;0.65;53.38;99888.38;5007246;28;20945;-75
2024/01/15 01:49:05;;;;;;;18.02;10.02;;;;;;;0.64;53.44;99878.56;5006438;28;20048;-75
2024/01/15 01:51:35;;;;;;;21.97;10.83;;;;;;;0.63;53.67;99884.88;5005630;28;20034;-75
2024/01/15 01:54:06;;;;;;;20.85;10.93;;;;;;;0.64;53.74;99878.56;5005331;28;20305;-75
2024/01/15 01:56:35;;;;;;;19.83;10.40;;;;;;;0.62;53.52;99889.41;4987634;28;20041;-75
2024/01/15 01:59:04;;;;;;;21.58;9.95;;;;;;;0.63;53.65;99891.16;5004067;28;20046;-75
2024/01/15 02:01:33;;;;;;;18.85;10.35;;;;;;;0.62;53.64;99878.63;5004793;28;20521;-75
2024/01/15 02:04:01;;;;;;;20.27;10.57;;;;;;;0.62;53.90;99891.22;4988728;28;20547;-75
2024/01/15 02:06:29;;;;;;;16.50;9.40;;;;;;;0.62;53.53;99893.94;5005557;28;20041;-75
2024/01/15 02:08:57;;;;;;;19.90;10.07;;;;;;;0.63;53.81;99898.34;5003236;28;20036;-75
2024/01/15 02:11:26;;;;;;;19.33;9.70;;;;;;;0.63;53.92;99899.22;5005393;28;20059;-75
2024/01/15 02:13:54;;;;;;;20.17;9.98;;;;;;;0.63;53.94;99901.91;4988677;28;20061;-75
2024/01/15 02:16:22;;;;;;;18.10;9.40;;;;;;;0.64;53.70;99914.41;5005154;28;20121;-75
2024/01/15 02:18:50;;;;;;;19.77;10.02;;;;;;;0.65;53.58;99908.06;5004451;28;20056;-75
2024/01/15 02:21:18;;;;;;;20.33;9.82;;;;;;;0.65;53.82;99899.13;5004739;28;20046;-75
2024/01/15 02:23:48;;;;;;;19.25;9.52;;;;;;;0.66;53.95;99901.75;5005518;28;20046;-75
2024/01/15 02:26:16;;;;;;;16.80;8.80;;;;;;;0.67;53.87;99903.47;5005091;28;20476;-75
2024/01/15 02:28:44;;;;;;;17.27;9.27;;;;;;;0.67;53.98;99900.78;5004718;28;20472;-75
2024/01/15 02:31:12;;;;;;;17.85;9.55;;;;;;;0.68;53.77;99891.72;5003401;28;20050;-75
2024/01/15 02:33:42;;;;;;;17.35;9.02;;;;;;;0.69;53.68;99889.88;5004764;28;20053;-75
2024/01/15 02:36:10;;;;;;;18.95;9.25;;;;;;;0.68;53.79;99891.72;4988107;28;20081;-75
2024/01/15 02:38:38;;;;;;;16.00;8.98;;;;;;;0.69;53.93;99889.88;5004843;28;20389;-75
2024/01/15 02:41:07;;;;;;;18.55;8.98;;;;;;;0.69;53.92;99888.06;5003106;28;20034;-75
2024/01/15 02:43:35;;;;;;;15.48;8.30;;;;;;;0.68;53.81;99893.56;5003021;28;20046;-75
2024/01/15 02:46:03;;;;;;;16.23;8.40;;;;;;;0.69;54.15;99892.56;5001535;28;20048;-76
2024/01/15 02:48:31;;;;;;;15.90;8.90;;;;;;;0.71;53.90;99893.34;5001027;28;20046;-75
2024/01/15 02:50:59;;;;;;;16.90;8.35;;;;;;;0.71;54.08;99887.97;4998002;28;20533;-75
2024/01/15 02:53:27;;;;;;;14.90;8.25;;;;;;;0.72;54.04;99901.34;5001264;28;20544;-76
2024/01/15 02:55:55;;;;;;;17.85;8.80;;;;;;;0.74;54.18;99893.19;5002115;28;20074;-75
2024/01/15 02:58:24;;;;;;;16.02;8.38;;;;;;;0.76;54.13;99890.41;5001043;28;20037;-75
2024/01/15 03:00:52;;;;;;;17.63;9.23;;;;;;;0.77;54.03;99897.47;4984525;28;20205;-75
2024/01/15 03:03:20;;;;;;;16.73;8.80;;;;;;;0.77;54.17;99897.47;5002192;28;20042;-75
2024/01/15 03:05:48;;;;;;;18.67;8.88;;;;;;;0.79;54.08;99900.97;5000191;28;20042;-75
2024/01/15 03:08:17;;;;;;;15.73;8.18;;;;;;;0.79;53.89;99904.53;4982166;28;20077;-75
2024/01/15 03:10:45;;;;;;;17.48;9.25;;;;;;;0.80;54.10;99900.00;4999483;28;20062;-75
2024/01/15 03:13:12;;;;;;;19.23;9.18;;;;;;;0.83;54.14;99902.50;4978632;28;20061;-75
2024/01/15 03:15:42;;;;;;;17.63;8.30;;;;;;;0.84;54.14;99897.03;5000037;28;20069;-75
2024/01/15 03:18:09;;;;;;;16.88;8.48;;;;;;;0.85;54.07;99903.28;5002656;28;20459;-75
2024/01/15 03:20:38;;;;;;;13.98;8.48;;;;;;;0.85;54.02;99896.03;4999679;28;20064;-75
2024/01/15 03:23:06;;;;;;;16.58;8.45;;;;;;;0.86;53.93;99903.16;4978359;28;20104;-75
2024/01/15 03:25:34;;;;;;;12.63;7.28;;;;;;;0.87;53.92;99896.81;5002248;28;20050;-75
2024/01/15 03:28:01;;;;;;;14.48;8.05;;;;;;;0.88;53.99;99895.91;5001473;28;20777;-75
2024/01/15 03:30:29;;;;;;;17.33;8.50;;;;;;;0.89;54.02;99905.72;5001006;28;20044;-75
2024/01/15 03:32:59;;;;;;;15.15;7.82;;;;;;;0.89;54.16;99904.84;4999360;28;20046;-75
2024/01/15 03:35:29;;;;;;;15.25;7.68;;;;;;;0.91;53.89;99897.53;4997365;28;20054;-75
2024/01/15 03:37:57;;;;;;;13.57;7.43;;;;;;;0.92;53.98;99893.91;4978612;28;20517;-75
2024/01/15 03:40:25;;;;;;;13.00;7.03;;;;;;;0.93;53.85;99898.31;4998022;28;20767;-75
2024/01/15 03:42:53;;;;;;;13.55;7.38;;;;;;;0.92;53.98;99886.69;4998566;28;20060;-75
2024/01/15 03:45:21;;;;;;;13.90;6.78;;;;;;;0.94;53.98;99892.81;4999380;28;20046;-74
2024/01/15 03:47:49;;;;;;;13.45;7.07;;;;;;;0.94;53.99;99886.56;4998612;28;20125;-74
2024/01/15 03:50:18;;;;;;;13.05;7.82;;;;;;;0.96;54.10;99890.03;4997558;28;20046;-75
2024/01/15 03:52:46;;;;;;;14.13;7.15;;;;;;;0.96;53.89;99887.34;5000219;28;20452;-75
2024/01/15 03:55:14;;;;;;;13.07;7.63;;;;;;;0.95;54.03;99890.97;4998631;28;20518;-75
2024/01/15 03:57:42;;;;;;;12.52;6.80;;;;;;;0.96;53.94;99884.63;5000917;28;20041;-75
2024/01/15 04:00:11;;;;;;;13.68;7.68;;;;;;;0.99;53.92;99879.06;4982488;28;20065;-75
2024/01/15 04:02:39;;;;;;;12.40;6.93;;;;;;;0.98;53.73;99880.03;5000710;28;20462;-75
2024/01/15 04:05:07;;;;;;;14.25;7.13;;;;;;;0.99;53.96;99874.53;4985705;28;20127;-75
2024/01/15 04:07:36;;;;;;;13.93;7.40;;;;;;;1.01;53.87;99875.28;5000652;28;20046;-75
2024/01/15 04:10:05;;;;;;;14.52;7.63;;;;;;;1.00;53.82;99870.91;4999091;28;20077;-75
2024/01/15 04:12:33;;;;;;;14.10;7.50;;;;;;;0.99;53.86;99863.78;5000199;28;20700;-75
2024/01/15 04:15:01;;;;;;;10.93;6.43;;;;;;;1.00;53.86;99872.72;5001900;28;20049;-75
2024/01/15 04:17:29;;;;;;;12.15;7.00;;;;;;;1.00;53.92;99860.13;5006473;28;20529;-74
2024/01/15 04:19:57;;;;;;;12.73;7.13;;;;;;;1.00;53.83;99861.94;4981626;28;20169;-75
2024/01/15 04:22:25;;;;;;;13.88;6.82;;;;;;;1.01;53.85;99860.97;5003352;28;20477;-74
2024/01/15 04:24:55;;;;;;;11.15;7.05;;;;;;;1.02;53.88;99860.00;5004786;28;20485;-74
2024/01/15 04:27:23;;;;;;;11.48;6.80;;;;;;;1.01;53.89;99853.72;5004570;28;20493;-75
2024/01/15 04:29:51;;;;;;;11.15;6.35;;;;;;;1.02;53.84;99854.59;4982971;28;20049;-74
2024/01/15 04:32:19;;;;;;;11.55;6.88;;;;;;;1.01;53.85;99845.66;5002076;28;20045;-74
2024/01/15 04:34:47;;;;;;;12.15;6.50;;;;;;;1.02;53.84;99842.00;5002877;28;20058;-75
2024/01/15 04:37:15;;;;;;;11.82;6.53;;;;;;;1.03;53.74;99842.88;5000103;28;20051;-75
2024/01/15 04:39:43;;;;;;;11.13;6.05;;;;;;;1.03;53.81;99848.25;5005316;28;20116;-74
2024/01/15 04:42:12;;;;;;;12.88;6.32;;;;;;;1.03;53.70;99843.72;5003689;28;20409;-74
2024/01/15 04:44:40;;;;;;;11.15;6.32;;;;;;;1.03;54.05;99845.56;5005109;28;20552;-74
2024/01/15 04:47:08;;;;;;;11.25;6.75;;;;;;;1.02;53.69;99839.31;4988663;28;20591;-75
2024/01/15 04:49:36;;;;;;;12.90;7.38;;;;;;;1.03;53.73;99841.03;5004439;28;20123;-74
2024/01/15 04:52:04;;;;;;;11.05;6.05;;;;;;;1.02;53.79;99842.00;5004621;28;20128;-74
2024/01/15 04:54:32;;;;;;;13.18;6.47;;;;;;;1.03;53.88;99834.78;5007068;28;20444;-74
2024/01/15 04:57:00;;;;;;;10.95;6.07;;;;;;;1.03;53.76;99829.41;5004283;28;20054;-74
2024/01/15 04:59:29;;;;;;;11.55;6.20;;;;;;;1.04;53.74;99841.91;5004784;28;20172;-75
2024/01/15 05:01:57;;;;;;;11.85;6.07;;;;;;;1.02;53.79;99833.91;5003939;28;20121;-74
2024/01/15 05:04:25;;;;;;;11.52;6.25;;;;;;;1.02;53.97;99833.91;5004397;28;20084;-74
2024/01/15 05:06:54;;;;;;;10.98;5.85;;;;;;;1.03;53.76;99834.78;5007567;28;20501;-74
2024/01/15 05:09:22;;;;;;;12.25;5.82;;;;;;;1.02;53.75;99830.34;4985069;28;20069;-74
2024/01/15 05:11:50;;;;;;;10.50;5.85;;;;;;;1.03;53.75;99829.41;5002300;28;20149;-74
2024/01/15 05:14:18;;;;;;;10.75;6.05;;;;;;;1.03;53.67;99827.56;5003703;28;20533;-74
2024/01/15 05:16:49;;;;;;;10.73;5.60;;;;;;;1.05;53.81;99824.78;5001262;28;20162;-74
2024/01/15 05:19:17;;;;;;;9.25;5.55;;;;;;;1.03;53.79;99824.00;5003462;28;20049;-74
2024/01/15 05:21:45;;;;;;;10.30;5.32;;;;;;;1.03;53.80;99827.56;4998879;28;20084;-76
2024/01/15 05:24:13;;;;;;;9.43;6.05;;;;;;;1.04;53.88;99818.53;5006152;28;20050;-73
2024/01/15 05:26:41;;;;;;;11.15;5.45;;;;;;;1.04;53.93;99821.22;5005529;28;20042;-73
2024/01/15 05:29:09;;;;;;;10.40;5.40;;;;;;;1.04;53.73;99823.03;5007807;28;20137;-74
2024/01/15 05:31:37;;;;;;;11.25;5.72;;;;;;;1.05;53.65;99831.03;4982748;28;20058;-73
2024/01/15 05:34:06;;;;;;;10.13;5.28;;;;;;;1.07;53.67;99830.94;5008718;28;20038;-73
2024/01/15 05:36:34;;;;;;;11.50;5.00;;;;;;;1.05;53.85;99825.66;4984421;28;20129;-73
2024/01/15 05:39:02;;;;;;;8.93;4.85;;;;;;;1.06;53.69;99826.50;4988455;28;20061;-75
2024/01/15 05:41:30;;;;;;;8.27;4.80;;;;;;;1.05;53.88;99820.25;5007696;28;20046;-76
2024/01/15 05:43:58;;;;;;;8.57;4.95;;;;;;;1.06;53.93;99818.44;5003606;28;20038;-75
2024/01/15 05:46:26;;;;;;;9.68;5.57;;;;;;;1.07;53.94;99815.66;5007538;28;20153;-76
2024/01/15 05:49:03;;;;;;;8.02;4.95;;;;;;;1.08;53.87;99808.44;5003039;28;20050;-74
2024/01/15 05:51:45;;;;;;;8.73;4.72;;;;;;;1.08;53.96;99817.38;4989927;28;20080;-75
2024/01/15 05:54:13;;;;;;;9.80;4.90;;;;;;;1.10;53.69;99817.25;5008263;28;20050;-72
2024/01/15 05:56:41;;;;;;;8.63;5.07;;;;;;;1.10;53.88;99820.81;4992629;28;20096;-73
2024/01/15 05:59:09;;;;;;;8.73;4.55;;;;;;;1.11;53.91;99802.81;5004323;28;20488;-74
2024/01/15 06:01:42;;;;;;;8.20;4.65;;;;;;;1.10;53.97;99796.56;5004705;28;20113;-74
2024/01/15 06:04:10;;;;;;;7.00;4.30;;;;;;;1.13;53.88;99794.63;4992059;28;20440;-73
2024/01/15 06:06:38;;;;;;;10.65;5.18;;;;;;;1.14;53.85;99790.97;5004735;28;20042;-73
2024/01/15 06:09:08;;;;;;;7.57;4.47;;;;;;;1.15;53.86;99781.94;5008038;28;20120;-73
2024/01/15 06:11:36;;;;;;;9.35;5.00;;;;;;;1.13;53.81;99776.66;5000907;28;20044;-73
2024/01/15 06:14:04;;;;;;;8.63;4.63;;;;;;;1.14;54.02;99775.69;5009525;28;20042;-73
2024/01/15 06:16:32;;;;;;;9.20;4.18;;;;;;;1.14;53.82;99783.75;5005817;28;20512;-74
2024/01/15 06:19:00;;;;;;;8.23;4.72;;;;;;;1.14;53.95;99777.50;5003095;28;20037;-73
2024/01/15 06:21:28;;;;;;;7.90;4.43;;;;;;;1.16;53.78;99778.28;5003212;28;20521;-73
2024/01/15 06:23:57;;;;;;;8.40;4.22;;;;;;;1.16;53.75;99775.59;5009349;28;20045;-74
2024/01/15 06:26:26;;;;;;;8.45;4.70;;;;;;;1.16;53.78;99772.88;5002903;28;20077;-74
2024/01/15 06:28:54;;;;;;;7.35;4.30;;;;;;;1.15;53.66;99777.41;5007572;28;20128;-73
2024/01/15 06:31:21;;;;;;;7.45;4.07;;;;;;;1.16;53.87;99786.38;5004685;28;20038;-73
2024/01/15 06:33:50;;;;;;;8.68;4.50;;;;;;;1.15;53.86;99780.09;4991224;28;20686;-74
2024/01/15 06:36:18;;;;;;;7.60;4.43;;;;;;;1.17;53.84;99772.78;5005299;28;20050;-73
2024/01/15 06:38:46;;;;;;;9.45;5.00;;;;;;;1.16;53.66;99765.66;5006639;28;20062;-74
2024/01/15 06:41:14;;;;;;;6.85;3.90;;;;;;;1.18;53.75;99777.19;5003152;28;20041;-74
2024/01/15 06:43:43;;;;;;;6.90;3.90;;;;;;;1.18;53.73;99774.50;5007737;28;20145;-74
2024/01/15 06:46:11;;;;;;;6.72;4.20;;;;;;;1.18;53.76;99771.81;5002839;28;20398;-73
2024/01/15 06:48:39;;;;;;;7.05;3.92;;;;;;;1.19;53.61;99769.97;5008157;28;20052;-75
2024/01/15 06:51:07;;;;;;;6.80;3.40;;;;;;;1.17;53.69;99775.50;5005696;28;20412;-73
2024/01/15 06:53:35;;;;;;;6.40;3.40;;;;;;;1.18;53.68;99777.19;5009118;28;20038;-73
2024/01/15 06:56:03;;;;;;;6.72;4.18;;;;;;;1.18;53.86;99785.28;5005598;28;20409;-74
2024/01/15 06:58:32;;;;;;;6.95;4.05;;;;;;;1.17;53.74;99778.19;5007472;28;20572;-73
2024/01/15 07:01:02;;;;;;;6.10;3.50;;;;;;;1.17;53.68;99774.63;5000154;28;20486;-74
2024/01/15 07:03:30;;;;;;;6.32;3.72;;;;;;;1.16;53.60;99775.59;5009456;28;20046;-74
2024/01/15 07:05:58;;;;;;;6.95;3.60;;;;;;;1.14;53.49;99783.75;5009261;28;20556;-74
2024/01/15 07:08:26;;;;;;;7.38;4.00;;;;;;;1.11;53.28;99782.13;4990633;28;20045;-74
2024/01/15 07:10:54;;;;;;;7.38;4.10;;;;;;;1.09;53.58;99781.34;4987533;28;20034;-74
2024/01/15 07:13:22;;;;;;;6.90;4.18;;;;;;;1.06;53.49;99776.19;4987450;28;20062;-74
2024/01/15 07:15:50;;;;;;;8.10;4.72;;;;;;;1.04;53.76;99774.53;5008330;28;20524;-74
2024/01/15 07:18:19;;;;;;;8.07;4.68;;;;;;;1.03;53.83;99768.28;5008340;28;20456;-74
2024/01/15 07:20:47;;;;;;;7.43;4.45;;;;;;;1.01;53.77;99772.06;5001372;28;20042;-74
2024/01/15 07:23:15;;;;;;;8.73;4.88;;;;;;;0.99;53.90;99769.47;5001397;28;20481;-73
2024/01/15 07:25:43;;;;;;;8.60;4.97;;;;;;;0.98;54.07;99769.56;5004280;28;20069;-74
2024/01/15 07:28:11;;;;;;;9.02;5.40;;;;;;;0.98;53.95;99774.97;4990189;28;20532;-74
2024/01/15 07:30:39;;;;;;;8.85;4.90;;;;;;;0.98;53.96;99769.56;5004114;28;20116;-74
2024/01/15 07:33:07;;;;;;;9.90;5.80;;;;;;;0.99;54.07;99771.31;5008345;28;20034;-74
2024/01/15 07:35:36;;;;;;;8.15;5.28;;;;;;;0.99;54.11;99768.59;5001280;28;20563;-74
2024/01/15 07:38:04;;;;;;;11.25;5.78;;;;;;;0.99;54.07;99769.47;5000890;28;20120;-75
2024/01/15 07:40:32;;;;;;;8.55;5.43;;;;;;;0.99;54.28;99766.78;5004142;28;20590;-74
2024/01/15 07:43:00;;;;;;;10.48;5.70;;;;;;;1.01;54.13;99772.91;5006142;28;20038;-73
2024/01/15 07:45:28;;;;;;;9.88;5.55;;;;;;;1.00;54.10;99765.81;5006272;28;20622;-73
2024/01/15 07:47:56;;;;;;;10.27;5.93;;;;;;;1.02;54.04;99769.25;5007129;28;20157;-73
2024/01/15 07:50:24;;;;;;;10.40;5.47;;;;;;;1.02;54.09;99763.00;5002689;28;20046;-73
2024/01/15 07:52:54;;;;;;;10.32;5.53;;;;;;;1.04;54.00;99766.47;4986080;28;20042;-74
2024/01/15 07:55:22;;;;;;;9.88;5.53;;;;;;;1.04;53.85;99775.41;5004036;28;20054;-74
2024/01/15 07:57:50;;;;;;;11.70;5.75;;;;;;;1.04;53.96;99769.16;5003098;28;20069;-74
2024/01/15 08:00:29;;;;;;;11.07;5.72;;;;;;;1.02;54.36;99769.25;5004401;28;20046;-74
2024/01/15 08:02:57;;;;;;;9.13;5.75;;;;;;;1.03;54.04;99767.44;5006830;28;20506;-74
2024/01/15 08:05:25;;;;;;;11.50;6.05;;;;;;;1.02;53.83;99769.25;5005428;28;20041;-74
2024/01/15 08:07:54;;;;;;;10.02;5.97;;;;;;;1.02;54.00;99766.56;4981026;28;20046;-74
2024/01/15 08:10:26;;;;;;;10.02;5.93;;;;;;;0.98;54.09;99765.03;4985855;28;20046;-72
2024/01/15 08:12:54;;;;;;;11.55;6.75;;;;;;;0.98;53.96;99762.34;4989207;28;20076;-73
2024/01/15 08:15:21;;;;;;;9.70;6.47;;;;;;;0.98;54.00;99761.50;5001148;28;20057;-73
2024/01/15 08:17:50;;;;;;;11.27;6.95;;;;;;;0.97;53.97;99762.44;5006530;28;20117;-74
2024/01/15 08:20:18;;;;;;;12.25;7.57;;;;;;;0.95;53.98;99758.97;5003016;28;20049;-73
2024/01/15 08:22:47;;;;;;;11.35;6.70;;;;;;;0.93;54.00;99745.59;5002438;28;20043;-73
2024/01/15 08:25:17;;;;;;;13.07;6.65;;;;;;;0.93;54.03;99748.31;5005546;28;20053;-74
2024/01/15 08:27:45;;;;;;;13.52;6.93;;;;;;;0.89;54.09;99749.47;5007251;28;20576;-73
2024/01/15 08:30:14;;;;;;;12.10;7.57;;;;;;;0.90;54.18;99753.03;5004302;28;20078;-73
2024/01/15 08:32:42;;;;;;;13.48;7.65;;;;;;;0.88;54.09;99753.13;5006511;28;20144;-73
2024/01/15 08:35:11;;;;;;;13.68;7.68;;;;;;;0.87;54.06;99750.50;5001806;28;20045;-73
2024/01/15 08:37:39;;;;;;;12.98;7.30;;;;;;;0.85;54.27;99753.28;5003877;28;20153;-73
2024/01/15 08:40:08;;;;;;;13.45;7.90;;;;;;;0.84;54.07;99754.28;5005115;28;25557;-73
2024/01/15 08:42:37;;;;;;;12.45;7.22;;;;;;;0.83;54.17;99754.38;5003215;28;20046;-73
2024/01/15 08:45:06;;;;;;;13.15;7.30;;;;;;;0.80;54.14;99757.25;5004756;28;20603;-73
2024/01/15 08:47:34;;;;;;;13.02;7.50;;;;;;;0.77;54.27;99766.38;5005756;28;20088;-73
2024/01/15 08:50:04;;;;;;;12.15;6.85;;;;;;;0.77;54.08;99765.53;5000592;28;20045;-73
2024/01/15 08:52:31;;;;;;;12.82;7.10;;;;;;;0.74;54.25;99770.16;5004185;28;20073;-73
2024/01/15 08:55:00;;;;;;;12.27;6.53;;;;;;;0.72;54.30;99771.22;5005794;28;20506;-73
2024/01/15 08:57:28;;;;;;;9.80;6.32;;;;;;;0.71;54.33;99769.47;4989238;28;20088;-72
2024/01/15 08:59:58;;;;;;;12.00;6.53;;;;;;;0.71;54.30;99773.03;5001893;28;20034;-73
2024/01/15 09:02:26;;;;;;;10.65;6.38;;;;;;;0.70;54.46;99774.00;5008684;28;20082;-72
2024/01/15 09:04:54;;;;;;;9.65;6.18;;;;;;;0.69;54.26;99776.78;4984806;28;20042;-73
2024/01/15 09:07:22;;;;;;;12.13;6.50;;;;;;;0.69;54.34;99776.78;5005239;28;20046;-73
2024/01/15 09:09:50;;;;;;;9.90;5.95;;;;;;;0.67;54.29;99776.91;5005984;28;20100;-73
2024/01/15 09:12:20;;;;;;;10.25;5.80;;;;;;;0.66;54.25;99785.94;5008597;28;20561;-73
2024/01/15 09:14:49;;;;;;;9.77;5.88;;;;;;;0.65;54.24;99781.53;5010985;28;20041;-73
2024/01/15 09:17:18;;;;;;;11.88;6.60;;;;;;;0.65;54.22;99783.34;5009710;28;20125;-74
2024/01/15 09:19:46;;;;;;;10.55;6.10;;;;;;;0.62;54.31;99797.00;4987305;28;20096;-74
2024/01/15 09:22:14;;;;;;;11.05;6.97;;;;;;;0.60;54.51;99793.56;4993086;28;20049;-74
2024/01/15 09:24:42;;;;;;;10.60;6.50;;;;;;;0.57;54.59;99788.34;5011818;28;20037;-74
2024/01/15 09:27:10;;;;;;;10.63;5.57;;;;;;;0.55;54.45;99788.44;4986305;28;20107;-72
2024/01/15 09:29:40;;;;;;;11.50;6.95;;;;;;;0.55;54.58;99792.97;5007429;28;20042;-73
2024/01/15 09:32:08;;;;;;;8.80;5.78;;;;;;;0.52;54.52;99799.41;4992828;28;20053;-74
2024/01/15 09:34:38;;;;;;;8.93;5.72;;;;;;;0.53;54.71;99798.44;5004648;28;20046;-74
2024/01/15 09:37:06;;;;;;;8.13;5.43;;;;;;;0.52;54.63;99798.56;5006711;28;20038;-74
2024/01/15 09:39:34;;;;;;;10.40;6.07;;;;;;;0.49;54.47;99796.91;5007530;28;20113;-73
2024/01/15 09:42:04;;;;;;;10.23;6.10;;;;;;;0.49;54.51;99799.59;4985111;28;20049;-74
2024/01/15 09:44:32;;;;;;;8.55;5.65;;;;;;;0.47;54.73;99804.22;5009892;28;20195;-74
2024/01/15 09:47:01;;;;;;;7.85;5.18;;;;;;;0.46;54.91;99802.47;5008006;28;20046;-74
2024/01/15 09:49:29;;;;;;;8.27;4.93;;;;;;;0.46;54.70;99807.00;5006912;28;20045;-75
2024/01/15 09:51:59;;;;;;;8.55;5.43;;;;;;;0.46;55.09;99815.06;5005620;28;20429;-75
2024/01/15 09:54:40;;;;;;;9.35;5.45;;;;;;;0.43;54.88;99812.59;5002090;28;20038;-74
2024/01/15 09:57:08;;;;;;;7.88;4.88;;;;;;;0.45;54.88;99818.72;5004299;28;20069;-74
2024/01/15 09:59:38;;;;;;;7.45;4.78;;;;;;;0.45;54.99;99814.22;5004486;28;20045;-75
2024/01/15 10:02:08;;;;;;;7.95;4.90;;;;;;;0.44;54.94;99814.28;5005630;28;20057;-74
2024/01/15 10:04:36;;;;;;;7.65;4.85;;;;;;;0.44;55.02;99817.00;5010090;28;20128;-74
2024/01/15 10:07:08;;;;;;;7.57;4.60;;;;;;;0.44;55.17;99815.16;5005615;28;20490;-74
2024/01/15 10:09:36;;;;;;;6.50;4.30;;;;;;;0.42;54.93;99817.13;5006030;28;20119;-74
2024/01/15 10:12:05;;;;;;;6.55;4.47;;;;;;;0.44;55.12;99819.69;5002473;28;20096;-74
2024/01/15 10:14:33;;;;;;;7.63;4.20;;;;;;;0.44;55.06;99819.69;4996156;28;20054;-73
2024/01/15 10:17:01;;;;;;;6.47;4.07;;;;;;;0.44;55.08;99812.47;5005749;28;20037;-73
2024/01/15 10:19:32;;;;;;;6.43;4.20;;;;;;;0.45;55.19;99819.59;4988723;28;20386;-73
2024/01/15 10:22:00;;;;;;;5.78;3.80;;;;;;;0.45;55.36;99814.22;5004695;28;20108;-73
2024/01/15 10:24:29;;;;;;;6.55;4.25;;;;;;;0.47;55.11;99814.13;5009321;28;20402;-73
2024/01/15 10:27:06;;;;;;;5.55;3.70;;;;;;;0.48;55.80;99819.41;5004867;28;20065;-73
2024/01/15 10:29:34;;;;;;;5.65;3.30;;;;;;;0.47;55.36;99827.56;5009582;28;20046;-73
2024/01/15 10:32:02;;;;;;;4.97;3.38;;;;;;;0.50;55.30;99830.09;5006560;28;20089;-73
2024/01/15 10:34:31;;;;;;;5.22;3.40;;;;;;;0.50;55.45;99822.00;5010136;28;20084;-73
2024/01/15 10:36:59;;;;;;;4.50;3.17;;;;;;;0.51;55.20;99821.94;5003982;28;20038;-73
2024/01/15 10:39:30;;;;;;;5.13;2.90;;;;;;;0.54;55.31;99815.47;5009002;28;20054;-73
2024/01/15 10:41:58;;;;;;;5.28;3.38;;;;;;;0.53;55.31;99806.50;5001153;28;20406;-73
2024/01/15 10:44:26;;;;;;;4.25;2.63;;;;;;;0.55;55.30;99814.50;5009942;28;20053;-73
2024/01/15 10:46:56;;;;;;;5.93;2.83;;;;;;;0.58;55.29;99819.72;4983340;28;20045;-73
2024/01/15 10:49:26;;;;;;;5.30;2.92;;;;;;;0.57;55.01;99820.66;5006044;28;20409;-73
2024/01/15 10:51:59;;;;;;;4.03;2.53;;;;;;;0.56;55.09;99819.78;5004070;28;20064;-73
2024/01/15 10:54:29;;;;;;;4.60;2.60;;;;;;;0.58;55.19;99822.41;5008944;28;20131;-74
2024/01/15 10:56:58;;;;;;;4.38;2.40;;;;;;;0.55;55.17;99818.06;5005010;28;20046;-74
2024/01/15 10:59:26;;;;;;;4.43;2.28;;;;;;;0.55;55.30;99812.69;5008215;28;20133;-73
2024/01/15 11:01:54;;;;;;;3.53;2.10;;;;;;;0.56;55.24;99810.84;5003824;28;20128;-73
2024/01/15 11:04:26;;;;;;;3.60;1.98;;;;;;;0.55;55.18;99811.81;5008855;28;20060;-73
2024/01/15 11:06:56;;;;;;;3.80;2.10;;;;;;;0.56;55.38;99808.16;5005588;28;20041;-73
2024/01/15 11:09:25;;;;;;;3.35;1.95;;;;;;;0.57;55.55;99809.91;5006578;28;20045;-72
2024/01/15 11:12:08;;;;;;;3.30;2.00;;;;;;;0.58;56.14;99820.56;5004621;28;20335;-73
2024/01/15 11:14:36;;;;;;;2.50;1.60;;;;;;;0.57;55.66;99817.97;5008860;28;20089;-73
2024/01/15 11:17:05;;;;;;;3.25;1.80;;;;;;;0.62;55.76;99823.91;5004657;28;20054;-72
2024/01/15 11:19:43;;;;;;;3.60;1.85;;;;;;;0.66;55.96;99810.19;5003977;28;20053;-73
2024/01/15 11:22:32;;;;;;;3.30;1.60;;;;;;;0.65;55.55;99816.53;4987189;28;20409;-73
2024/01/15 11:25:03;;;;;;;3.40;1.60;;;;;;;0.68;55.62;99819.00;4983694;28;20038;-73
2024/01/15 11:27:42;;;;;;;3.08;1.35;;;;;;;0.74;56.07;99812.38;5003632;28;20423;-73
2024/01/15 11:30:12;;;;;;;4.22;1.30;;;;;;;0.74;55.58;99820.47;5002292;28;20600;-73
2024/01/15 11:32:42;;;;;;;1.55;1.08;;;;;;;0.77;55.71;99820.25;5008126;28;20034;-74
2024/01/15 11:35:11;;;;;;;3.30;1.30;;;;;;;0.78;55.73;99818.44;5003171;28;20038;-72
2024/01/15 11:37:59;;;;;;;2.08;1.20;;;;;;;0.84;56.39;99823.44;5003663;28;20382;-73
2024/01/15 11:40:42;;;;;;;6.30;1.50;;;;;;;0.87;56.22;99817.84;5003240;28;20041;-72
2024/01/15 11:43:13;;;;;;;2.03;1.30;;;;;;;0.90;55.96;99817.69;5006637;28;20529;-73
2024/01/15 11:45:42;;;;;;;3.03;1.40;;;;;;;0.94;56.00;99813.81;4998862;28;20049;-73
2024/01/15 11:48:15;;;;;;;2.75;1.52;;;;;;;1.00;56.00;99813.44;5008802;28;20436;-73
2024/01/15 11:50:46;;;;;;;2.67;1.70;;;;;;;1.02;55.77;99804.28;5003877;28;20046;-73
2024/01/15 11:53:19;;;;;;;2.75;1.63;;;;;;;1.09;55.96;99815.53;5009341;28;20046;-73
2024/01/15 11:55:48;;;;;;;3.30;1.92;;;;;;;1.09;55.78;99816.38;4997180;28;20129;-74
2024/01/15 11:58:18;;;;;;;3.95;1.83;;;;;;;1.15;55.75;99817.84;5008468;28;20050;-74